Weather at Kithira Airport

Public forecast

Using degrees Celsius for public forecast. Weather courtesy of forecast.io.

Current aviation weather report (METAR) for Kithira Airport

Report is more than 6 hours old.

Retrieved 2021/04/12 15:50 UTC (7 hours ago):

LGKC 121550Z 14008KT CAVOK 15/11 Q1022

Aviation forecast (TAF) for Kithira Airport

Forecast is more than 12 hours old.

Retrieved 2011/11/25 15:06 UTC (9 years ago):

TAF TAF LGKC 251400Z 2515/2603 05022G32KT 9999 SCT010 PROB40 2522/2603 4000 BR SCT006